Data for 06/06/2010

Time Sea-Level Adjusted Pressure Absolute Pressure Temperature Relative Humidity Dew Point   
(mb) (inHg) (mb) (inHg) (C) (F) (%) (C) (F)
00:05 1022 30.18 851 25.13 10.9 51.7 55 2.4 36.3
00:10 1022 30.18 851 25.13 10.8 51.4 55 2.2 35.9
00:15 1022 30.18 851 25.13 10.8 51.5 55 2.1 35.8
00:20 1022 30.18 851 25.13 10.8 51.4 56 2.4 36.3
00:25 1022 30.18 851 25.13 10.7 51.3 56 2.3 36.1
00:30 1022 30.18 851 25.13 10.9 51.6 51 1.2 34.1
00:35 1022 30.18 851 25.13 11.2 52.1 53 2.1 35.8
00:40 1022 30.18 851 25.13 11 51.8 55 2.3 36.1
00:45 1022 30.18 851 25.13 10.8 51.4 52 1.4 34.5
00:50 1022 30.18 851 25.13 11.2 52.1 55 2.6 36.7
00:55 1022 30.18 851 25.13 10.8 51.4 56 2.5 36.4
01:00 1022 30.18 851 25.13 10.4 50.7 58 2.6 36.6
01:05 1022 30.18 851 25.13 10.1 50.1 61 2.9 37.2
01:10 1022 30.18 851 25.13 9.8 49.7 62 2.9 37.3
01:15 1022 30.18 851 25.13 9.8 49.6 60 2.4 36.3
01:20 1022 30.18 851 25.13 10 50 55 1.5 34.7
01:25 1022 30.18 851 25.13 10.4 50.7 58 2.4 36.4
01:30 1022 30.18 851 25.13 10.3 50.5 59 2.5 36.6
01:35 1022 30.18 851 25.13 10.4 50.7 54 1.5 34.6
01:40 1022 30.18 851 25.13 10.6 51.1 56 2.2 35.9
01:45 1022 30.18 851 25.13 10.7 51.3 52 1.4 34.5
01:50 1022 30.18 851 25.13 10.9 51.6 53 1.7 35
01:55 1022 30.18 851 25.13 10.8 51.4 55 2.1 35.8
02:00 1022 30.18 851 25.13 10.6 51 53 1.4 34.6
02:05 1022 30.18 851 25.13 10.8 51.4 53 1.7 35
02:10 1022 30.18 851 25.13 10.8 51.5 52 1.3 34.4
02:15 1022 30.18 851 25.13 10.9 51.6 52 1.5 34.7
02:20 1022 30.18 851 25.13 10.9 51.5 55 2.1 35.8
02:25 1022 30.18 851 25.13 10.8 51.4 55 2.1 35.7
02:30 1022 30.18 851 25.13 10.8 51.5 52 1.4 34.5
02:35 1022 30.18 851 25.13 11.1 51.9 47 0.1 32.3
02:40 1022 30.18 851 25.13 11.3 52.4 48 0.8 33.4
02:45 1022 30.18 851 25.13 11.3 52.3 48 0.6 33.1
02:50 1022 30.18 851 25.13 11.2 52.2 49 1 33.8
02:55 1022 30.18 851 25.13 11 51.7 50 1.1 34
03:00 1022 30.18 851 25.13 10.9 51.6 50 0.9 33.6
03:05 1022 30.18 851 25.13 11 51.7 49 0.6 33.1
03:10 1022 30.18 851 25.13 10.9 51.7 51 1.1 34
03:15 1022 30.18 851 25.13 10.9 51.6 50 0.9 33.7
03:20 1022 30.18 851 25.13 10.9 51.5 50 1 33.8
03:25 1022 30.18 851 25.13 10.8 51.5 50 0.9 33.7
03:30 1022 30.18 851 25.13 10.8 51.4 52 1.4 34.5
03:35 1022 30.18 851 25.13 10.6 51.1 51 1.1 33.9
03:40 1022 30.18 851 25.13 10.6 51.1 51 0.9 33.7
03:45 1022 30.18 851 25.13 10.7 51.3 51 0.9 33.6
03:50 1022 30.18 851 25.13 10.9 51.6 49 0.5 32.9
03:55 1021 30.15 851 25.13 11 51.8 48 0.4 32.7
04:00 1021 30.15 851 25.13 11.1 51.9 45 -0.2 31.6
04:05 1021 30.15 851 25.13 11.2 52.2 45 -0.3 31.5
04:10 1021 30.15 850 25.1 11.4 52.4 44 -0.3 31.5
04:15 1021 30.15 850 25.1 11.4 52.4 44 -0.3 31.4
04:20 1021 30.15 850 25.1 11.3 52.4 45 -0.1 31.8
04:25 1021 30.15 850 25.1 11.2 52.1 45 -0.3 31.4
04:30 1021 30.15 850 25.1 11.2 52.1 45 -0.4 31.3
04:35 1021 30.15 851 25.13 11.2 52.1 44 -0.5 31.1
04:40 1021 30.15 850 25.1 11.2 52.2 43 -0.8 30.6
04:45 1021 30.15 850 25.1 11.2 52.2 46 -0 32
04:50 1021 30.15 850 25.1 11 51.7 48 0.3 32.6
04:55 1021 30.15 851 25.13 10.9 51.5 46 -0.2 31.7
05:00 1021 30.15 851 25.13 11 51.7 45 -0.5 31.2
05:05 1021 30.15 851 25.13 11.1 52 45 -0.3 31.4
05:10 1021 30.15 851 25.13 11.1 52.1 46 -0.1 31.8
05:15 1021 30.15 851 25.13 11.1 52 45 -0.2 31.7
05:20 1022 30.18 851 25.13 11 51.9 45 -0.5 31.2
05:25 1022 30.18 851 25.13 11 51.8 45 -0.3 31.5
05:30 1022 30.18 851 25.13 10.9 51.6 51 1.3 34.3
05:35 1022 30.18 851 25.13 10.4 50.7 56 2.1 35.8
05:40 1022 30.18 851 25.13 10.1 50.2 57 2 35.6
05:45 1022 30.18 851 25.13 10.1 50.1 57 1.9 35.5
05:50 1022 30.18 851 25.13 10 50.1 58 2.1 35.9
05:55 1022 30.18 851 25.13 10 50 59 2.3 36.1
06:00 1022 30.18 851 25.13 9.9 49.8 59 2.2 35.9
06:05 1022 30.18 851 25.13 9.8 49.6 60 2.6 36.6
06:10 1022 30.18 851 25.13 9.8 49.6 62 2.9 37.2
06:15 1022 30.18 851 25.13 9.7 49.4 62 2.9 37.2
06:20 1022 30.18 851 25.13 9.7 49.5 63 3.2 37.7
06:25 1022 30.18 851 25.13 9.8 49.6 63 3 37.4
06:30 1022 30.18 851 25.13 9.8 49.6 62 3 37.4
06:35 1022 30.18 851 25.13 9.8 49.6 61 2.6 36.6
06:40 1022 30.18 851 25.13 9.8 49.7 60 2.5 36.5
06:45 1022 30.18 851 25.13 9.9 49.9 62 3.1 37.6
06:50 1022 30.18 851 25.13 10 49.9 63 3.3 37.9
06:55 1022 30.18 851 25.13 9.8 49.6 64 3.4 38.2
07:00 1022 30.18 851 25.13 9.7 49.5 66 3.6 38.6
07:05 1022 30.18 851 25.13 9.6 49.3 65 3.3 37.9
07:10 1022 30.18 851 25.13 9.7 49.5 61 2.5 36.6
07:15 1022 30.18 851 25.13 9.9 49.8 60 2.6 36.7
07:20 1022 30.18 851 25.13 10 50 58 2.2 36
07:25 1022 30.18 851 25.13 10.1 50.2 57 1.9 35.5
07:30 1022 30.18 851 25.13 10.1 50.3 59 2.6 36.6
07:35 1022 30.18 851 25.13 10.2 50.3 57 2 35.5
07:40 1022 30.18 851 25.13 10.2 50.3 59 2.6 36.7
07:45 1022 30.18 851 25.13 10.1 50.2 62 3.2 37.8
07:50 1022 30.18 851 25.13 10 50 69 4.6 40.2
07:55 1022 30.18 851 25.13 10 50 65 3.8 38.8
08:00 1022 30.18 851 25.13 10.2 50.3 63 3.5 38.3
08:05 1022 30.18 851 25.13 10.2 50.4 63 3.6 38.4
08:10 1022 30.18 851 25.13 10.3 50.5 63 3.6 38.4
08:15 1022 30.18 851 25.13 10.3 50.6 61 3.3 37.9
08:20 1022 30.18 851 25.13 10.3 50.6 60 2.9 37.3
08:25 1022 30.18 851 25.13 10.4 50.7 60 2.9 37.3
08:30 1022 30.18 851 25.13 10.5 50.9 59 2.9 37.3
08:35 1022 30.18 851 25.13 10.6 51.1 59 2.9 37.3
08:40 1022 30.18 851 25.13 10.8 51.5 58 3 37.3
08:45 1022 30.18 851 25.13 11 51.7 58 3 37.4
08:50 1022 30.18 851 25.13 11.2 52.2 56 2.7 36.9
08:55 1022 30.18 851 25.13 11.3 52.3 56 2.8 37.1
09:00 1022 30.18 851 25.13 11.5 52.7 54 2.6 36.7
09:05 1022 30.18 851 25.13 11.7 53 54 2.7 36.9
09:10 1022 30.18 851 25.13 11.8 53.3 54 3 37.3
09:15 1022 30.18 851 25.13 12 53.5 53 2.8 37.1
09:20 1022 30.18 851 25.13 12 53.6 54 3.1 37.5
09:25 1022 30.18 851 25.13 12.1 53.7 55 3.3 38
09:30 1022 30.18 851 25.13 12.2 53.9 54 3.2 37.7
09:35 1022 30.18 851 25.13 12.4 54.2 53 3.2 37.7
09:40 1022 30.18 851 25.13 12.6 54.6 53 3.2 37.8
09:45 1022 30.18 851 25.13 12.9 55.2 52 3.2 37.8
09:50 1021 30.15 851 25.13 13.2 55.7 50 3.1 37.6
09:55 1021 30.15 851 25.13 13.5 56.2 51 3.7 38.7
10:00 1021 30.15 851 25.13 13.7 56.6 51 3.7 38.7
10:05 1021 30.15 851 25.13 13.9 57 51 4 39.2
10:10 1021 30.15 850 25.1 14 57.1 51 4 39.2
10:15 1021 30.15 850 25.1 13.9 57 51 3.9 39.1
10:20 1021 30.15 850 25.1 14.1 57.4 50 3.9 39
10:25 1021 30.15 850 25.1 14.5 58.1 49 4 39.2
10:30 1021 30.15 850 25.1 14.6 58.3 49 4.1 39.3
10:35 1021 30.15 850 25.1 14.7 58.5 49 4.3 39.8
10:40 1021 30.15 850 25.1 14.4 58 52 4.8 40.7
10:45 1021 30.15 850 25.1 14.2 57.6 51 4.2 39.5
10:50 1021 30.15 850 25.1 14.8 58.6 49 4.2 39.5
10:55 1021 30.15 850 25.1 14.6 58.3 51 4.7 40.5
11:00 1021 30.15 850 25.1 13.9 57 52 4.4 39.9
11:05 1021 30.15 850 25.1 13.8 56.9 52 4.3 39.7
11:10 1021 30.15 850 25.1 14.6 58.3 50 4.5 40.1
11:15 1021 30.15 850 25.1 14.9 58.8 52 5.1 41.1
11:20 1021 30.15 850 25.1 14.1 57.3 52 4.5 40.1
11:25 1021 30.15 850 25.1 15.1 59.2 47 4.1 39.4
11:30 1021 30.15 850 25.1 15.8 60.4 49 5.1 41.2
11:35 1021 30.15 850 25.1 15.6 60.2 49 5.1 41.2
11:40 1021 30.15 850 25.1 15.4 59.7 46 4 39.3
11:45 1021 30.15 850 25.1 16.8 62.3 43 4.3 39.7
11:50 1021 30.15 850 25.1 17.7 63.9 43 5.1 41.1
11:55 1021 30.15 850 25.1 17.1 62.7 43 4.5 40
12:00 1021 30.15 850 25.1 16.6 61.9 46 5.2 41.3
12:05 1021 30.15 850 25.1 16.9 62.4 43 4.5 40.1
12:10 1021 30.15 850 25.1 17.1 62.7 44 4.8 40.6
12:15 1021 30.15 850 25.1 17.4 63.3 42 4.5 40.1
12:20 1021 30.15 850 25.1 17.7 63.9 42 4.8 40.7
12:25 1021 30.15 850 25.1 17.1 62.7 43 4.5 40.2
12:30 1021 30.15 850 25.1 16.8 62.2 43 4.2 39.6
12:35 1021 30.15 850 25.1 17.8 64.1 40 4.1 39.4
12:40 1020 30.12 850 25.1 17.2 62.9 42 4.4 39.9
12:45 1020 30.12 850 25.1 17.1 62.8 42 4.1 39.3
12:50 1020 30.12 850 25.1 18.1 64.5 40 4.2 39.6
12:55 1020 30.12 850 25.1 19 66.1 37 3.9 39.1
13:00 1020 30.12 850 25.1 19.1 66.4 37 4.3 39.7
13:05 1020 30.12 850 25.1 18.8 65.8 39 4.7 40.5
13:10 1020 30.12 849 25.07 18.8 65.9 41 5.6 42
13:15 1020 30.12 849 25.07 18.7 65.7 41 5.5 41.9
13:20 1020 30.12 849 25.07 18.5 65.2 39 4.3 39.7
13:25 1020 30.12 849 25.07 19.3 66.7 37 4.3 39.7
13:30 1020 30.12 849 25.07 18.5 65.3 39 4.5 40.1
13:35 1020 30.12 849 25.07 18.7 65.6 37 3.8 38.8
13:40 1020 30.12 849 25.07 19.9 67.8 35 4.1 39.5
13:45 1020 30.12 849 25.07 20.8 69.4 34 4.4 40
13:50 1020 30.12 849 25.07 21 69.8 37 5.8 42.4
13:55 1020 30.12 849 25.07 19.8 67.7 37 4.7 40.5
14:00 1020 30.12 849 25.07 20.6 69 36 5 40.9
14:05 1020 30.12 849 25.07 21 69.8 36 5.6 42.1
14:10 1020 30.12 849 25.07 20 67.9 36 4.7 40.5
14:15 1020 30.12 849 25.07 19.4 66.8 40 5.6 42.1
14:20 1020 30.12 849 25.07 18.9 65.9 40 5.2 41.4
14:25 1020 30.12 849 25.07 19.4 67 38 5.1 41.1
14:30 1020 30.12 849 25.07 19.1 66.4 40 5.5 41.9
14:35 1020 30.12 849 25.07 18.8 65.9 40 5.1 41.1
14:40 1019 30.09 849 25.07 19.2 66.6 40 5.3 41.6
14:45 1019 30.09 849 25.07 20 67.9 38 5.3 41.6
14:50 1019 30.09 848 25.04 20.3 68.6 38 5.9 42.6
14:55 1019 30.09 848 25.04 19.3 66.8 39 5.4 41.6
15:00 1019 30.09 848 25.04 19.5 67.1 40 5.8 42.5
15:05 1019 30.09 848 25.04 19.1 66.4 41 5.8 42.5
15:10 1019 30.09 848 25.04 18.9 66.1 41 5.6 42
15:15 1019 30.09 848 25.04 19.1 66.3 40 5.4 41.7
15:20 1019 30.09 848 25.04 19.6 67.2 40 5.7 42.3
15:25 1019 30.09 848 25.04 19.8 67.7 40 6.1 43
15:30 1019 30.09 848 25.04 19.8 67.6 39 5.5 41.9
15:35 1019 30.09 848 25.04 20 67.9 41 6.3 43.4
15:40 1019 30.09 848 25.04 19.2 66.5 42 6.1 42.9
15:45 1019 30.09 848 25.04 19 66.3 42 5.8 42.5
15:50 1019 30.09 848 25.04 19.3 66.8 40 5.7 42.2
15:55 1019 30.09 848 25.04 19.6 67.3 40 5.7 42.2
16:00 1018 30.06 848 25.04 19.5 67.1 41 6 42.8
16:05 1018 30.06 848 25.04 19.5 67.1 41 6 42.8
16:10 1018 30.06 848 25.04 19.6 67.2 41 6 42.8
16:15 1018 30.06 848 25.04 20.1 68.2 39 6 42.7
16:20 1018 30.06 848 25.04 20.4 68.7 37 5.4 41.8
16:25 1018 30.06 848 25.04 20.3 68.6 39 6.1 43
16:30 1018 30.06 847 25.01 20.1 68.1 40 6 42.8
16:35 1018 30.06 847 25.01 20.2 68.3 39 6 42.8
16:40 1018 30.06 847 25.01 20.1 68.2 39 5.9 42.6
16:45 1018 30.06 847 25.01 19.6 67.4 41 6.2 43.2
16:50 1018 30.06 847 25.01 19.8 67.7 40 6 42.9
16:55 1018 30.06 847 25.01 19.8 67.6 42 6.6 43.9
17:00 1018 30.06 847 25.01 19.1 66.4 44 6.8 44.3
17:05 1018 30.06 847 25.01 18.6 65.4 46 6.9 44.4
17:10 1018 30.06 847 25.01 18.3 65 47 7 44.6
17:15 1018 30.06 847 25.01 18.1 64.6 48 7.2 44.9
17:20 1018 30.06 847 25.01 17.9 64.1 50 7.4 45.4
17:25 1018 30.06 848 25.04 17.9 64.2 57 9.4 48.8
17:30 1019 30.09 848 25.04 17.3 63.2 68 11.4 52.5
17:35 1018 30.06 848 25.04 16.6 61.9 69 10.9 51.7
17:40 1019 30.09 848 25.04 16.6 61.9 67 10.5 50.9
17:45 1019 30.09 848 25.04 16.7 62.1 66 10.3 50.5
17:50 1019 30.09 848 25.04 16.5 61.7 63 9.6 49.2
17:55 1018 30.06 848 25.04 16 60.8 61 8.5 47.4
18:00 1018 30.06 848 25.04 16 60.7 62 8.7 47.6
18:05 1018 30.06 848 25.04 16.1 61 65 9.5 49.1
18:10 1018 30.06 848 25.04 16 60.7 62 8.7 47.6
18:15 1018 30.06 847 25.01 15.8 60.4 66 9.5 49.1
18:20 1018 30.06 847 25.01 15.1 59.3 68 9.3 48.7
18:25 1018 30.06 847 25.01 14.8 58.7 68 9 48.2
18:30 1018 30.06 847 25.01 14.9 58.7 69 9.4 48.9
18:35 1018 30.06 847 25.01 15.2 59.4 68 9.5 49.1
18:40 1018 30.06 847 25.01 15.5 59.8 67 9.4 48.9
18:45 1018 30.06 847 25.01 15.5 60 70 10.1 50.2
18:50 1018 30.06 847 25.01 15.5 59.8 73 10.6 51.1
18:55 1018 30.06 847 25.01 15.4 59.8 73 10.7 51.3
19:00 1018 30.06 847 25.01 15.5 59.9 73 10.7 51.2
19:05 1018 30.06 847 25.01 15.1 59.2 70 9.8 49.7
19:10 1018 30.06 847 25.01 15 59 70 9.7 49.4
19:15 1018 30.06 847 25.01 15 59 71 9.7 49.5
19:20 1018 30.06 848 25.04 15.1 59.1 72 10.1 50.1
19:25 1018 30.06 848 25.04 15.2 59.4 70 9.9 49.7
19:30 1018 30.06 848 25.04 15.1 59.2 71 10 49.9
19:35 1018 30.06 848 25.04 15.1 59.2 71 10 50
19:40 1019 30.09 848 25.04 15.1 59.2 72 10.1 50.2
19:45 1019 30.09 848 25.04 14.9 58.9 75 10.6 51
19:50 1019 30.09 848 25.04 15 59.1 75 10.7 51.3
19:55 1019 30.09 848 25.04 15 59.1 77 11.2 52.1
20:00 1019 30.09 848 25.04 14.8 58.7 75 10.6 51
20:05 1019 30.09 848 25.04 14.7 58.4 75 10.3 50.5
20:10 1019 30.09 848 25.04 14.5 58.1 76 10.4 50.6
20:15 1019 30.09 848 25.04 14.4 57.9 76 10.2 50.3
20:20 1019 30.09 848 25.04 14.3 57.8 78 10.5 50.9
20:25 1019 30.09 848 25.04 14.3 57.7 77 10.3 50.5
20:30 1019 30.09 848 25.04 14.1 57.4 79 10.5 50.9
20:35 1019 30.09 848 25.04 13.9 57 81 10.7 51.3
20:40 1019 30.09 848 25.04 13.6 56.4 82 10.5 50.9
20:45 1019 30.09 848 25.04 13.1 55.5 80 9.7 49.4
20:50 1019 30.09 848 25.04 13.1 55.6 85 10.6 51.2
20:55 1019 30.09 848 25.04 12.9 55.1 87 10.8 51.5
21:00 1019 30.09 848 25.04 12.6 54.7 89 10.8 51.4
21:05 1019 30.09 848 25.04 12.5 54.5 89 10.8 51.4
21:10 1019 30.09 848 25.04 12.4 54.4 90 10.8 51.5
21:15 1019 30.09 848 25.04 12.3 54.1 90 10.8 51.4
21:20 1019 30.09 848 25.04 12.2 53.9 89 10.5 50.8
21:25 1019 30.09 848 25.04 12.2 53.9 89 10.4 50.7
21:30 1019 30.09 848 25.04 12.1 53.8 90 10.5 50.9
21:35 1019 30.09 848 25.04 12.1 53.8 89 10.4 50.7
21:40 1019 30.09 848 25.04 12.1 53.7 88 10.2 50.4
21:45 1019 30.09 848 25.04 12 53.7 88 10.2 50.3
21:50 1019 30.09 848 25.04 12 53.6 88 10.2 50.3
21:55 1019 30.09 848 25.04 12 53.7 88 10.1 50.2
22:00 1018 30.06 848 25.04 12.1 53.8 88 10.1 50.3
22:05 1018 30.06 848 25.04 12.1 53.8 88 10.2 50.4
22:10 1018 30.06 847 25.01 12.1 53.7 89 10.2 50.4
22:15 1018 30.06 847 25.01 12 53.6 88 10.2 50.3
22:20 1018 30.06 847 25.01 12.1 53.7 88 10.1 50.1
22:25 1018 30.06 847 25.01 12.1 53.8 87 10 50
22:30 1018 30.06 847 25.01 12.2 53.9 87 10 50
22:35 1018 30.06 847 25.01 12.2 53.9 86 10 50
22:40 1018 30.06 847 25.01 12.2 54 85 9.8 49.7
22:45 1018 30.06 847 25.01 12.3 54.2 84 9.7 49.5
22:50 1018 30.06 847 25.01 12.4 54.3 83 9.7 49.5
22:55 1018 30.06 847 25.01 12.4 54.4 84 9.8 49.6
23:00 1018 30.06 847 25.01 12.4 54.3 84 9.7 49.5
23:05 1018 30.06 847 25.01 12.5 54.4 83 9.7 49.4
23:10 1018 30.06 847 25.01 12.6 54.6 82 9.6 49.2
23:15 1018 30.06 847 25.01 12.5 54.6 81 9.4 48.9
23:20 1018 30.06 847 25.01 12.6 54.6 82 9.6 49.3
23:25 1018 30.06 847 25.01 12.5 54.5 82 9.5 49.1
23:30 1018 30.06 847 25.01 12.5 54.5 82 9.6 49.2
23:35 1018 30.06 847 25.01 12.5 54.5 80 9.2 48.6
23:40 1018 30.06 847 25.01 12.6 54.7 81 9.5 49.1
23:45 1018 30.06 847 25.01 12.6 54.7 80 9.3 48.7
23:50 1018 30.06 847 25.01 12.6 54.8 82 9.6 49.3
23:55 1018 30.06 847 25.01 12.6 54.7 80 9.3 48.8
24:00 1018 30.06 847 25.01 12.6 54.6 82 9.6 49.4